sensor_id;sensor_type;location;lat;lon;timestamp;P1;P2;P0
73305;PMS5003;61530;51.158;0.880;2022-12-11T09:32:07;66;58;32
73305;PMS5003;61530;51.158;0.880;2022-12-11T09:33:10;60;56;33
73305;PMS5003;61530;51.158;0.880;2022-12-11T09:34:15;66;55;33
73305;PMS5003;61530;51.158;0.880;2022-12-11T09:35:18;71;53;33
73305;PMS5003;61530;51.158;0.880;2022-12-11T09:36:23;68;56;30
73305;PMS5003;61530;51.158;0.880;2022-12-11T09:37:26;64;54;30
73305;PMS5003;61530;51.158;0.880;2022-12-11T09:38:31;65;52;30
73305;PMS5003;61530;51.158;0.880;2022-12-11T09:39:34;49;45;28
73305;PMS5003;61530;51.158;0.880;2022-12-11T09:40:39;52;43;23
73305;PMS5003;61530;51.158;0.880;2022-12-11T09:41:45;52;40;24
73305;PMS5003;61530;51.158;0.880;2022-12-11T09:42:49;52;44;22
73305;PMS5003;61530;51.158;0.880;2022-12-11T09:43:51;51;45;25
73305;PMS5003;61530;51.158;0.880;2022-12-11T09:44:55;59;52;25
73305;PMS5003;61530;51.158;0.880;2022-12-11T09:45:59;51;49;25
73305;PMS5003;61530;51.158;0.880;2022-12-11T09:47:05;56;49;29
73305;PMS5003;61530;51.158;0.880;2022-12-11T09:48:07;57;41;26
73305;PMS5003;61530;51.158;0.880;2022-12-11T09:49:13;49;45;25
73305;PMS5003;61530;51.158;0.880;2022-12-11T09:50:16;45;38;21
73305;PMS5003;61530;51.158;0.880;2022-12-11T09:51:20;58;50;26
73305;PMS5003;61530;51.158;0.880;2022-12-11T09:52:24;53;42;25
73305;PMS5003;61530;51.158;0.880;2022-12-11T09:53:28;46;41;25
73305;PMS5003;61530;51.158;0.880;2022-12-11T09:54:30;50;46;26
73305;PMS5003;61530;51.158;0.880;2022-12-11T09:55:38;57;49;26
73305;PMS5003;61530;51.158;0.880;2022-12-11T09:56:40;58;48;26
73305;PMS5003;61530;51.158;0.880;2022-12-11T09:57:45;53;49;26
73305;PMS5003;61530;51.158;0.880;2022-12-11T09:58:51;51;46;27
73305;PMS5003;61530;51.158;0.880;2022-12-11T09:59:56;42;41;25
73305;PMS5003;61530;51.158;0.880;2022-12-11T10:00:55;50;45;24
73305;PMS5003;61530;51.158;0.880;2022-12-11T10:02:00;44;38;22
73305;PMS5003;61530;51.158;0.880;2022-12-11T10:03:39;42;34;22
73305;PMS5003;61530;51.158;0.880;2022-12-11T10:04:29;41;37;23
73305;PMS5003;61530;51.158;0.880;2022-12-11T10:05:28;49;39;26
73305;PMS5003;61530;51.158;0.880;2022-12-11T10:06:31;47;44;24
73305;PMS5003;61530;51.158;0.880;2022-12-11T10:07:36;50;47;26
73305;PMS5003;61530;51.158;0.880;2022-12-11T10:08:40;45;43;23
73305;PMS5003;61530;51.158;0.880;2022-12-11T10:09:46;43;35;22
73305;PMS5003;61530;51.158;0.880;2022-12-11T10:10:48;38;30;18
73305;PMS5003;61530;51.158;0.880;2022-12-11T10:11:54;39;33;18
73305;PMS5003;61530;51.158;0.880;2022-12-11T10:13:03;39;33;19
73305;PMS5003;61530;51.158;0.880;2022-12-11T10:14:00;37;34;19
73305;PMS5003;61530;51.158;0.880;2022-12-11T10:15:10;39;33;21
73305;PMS5003;61530;51.158;0.880;2022-12-11T10:16:09;42;37;22
73305;PMS5003;61530;51.158;0.880;2022-12-11T10:17:11;43;32;14
73305;PMS5003;61530;51.158;0.880;2022-12-11T10:18:16;34;29;17
73305;PMS5003;61530;51.158;0.880;2022-12-11T10:19:20;30;26;17
73305;PMS5003;61530;51.158;0.880;2022-12-11T10:20:23;34;33;18
73305;PMS5003;61530;51.158;0.880;2022-12-11T10:21:26;33;29;17
73305;PMS5003;61530;51.158;0.880;2022-12-11T10:22:31;30;25;17
73305;PMS5003;61530;51.158;0.880;2022-12-11T10:23:35;28;27;14
73305;PMS5003;61530;51.158;0.880;2022-12-11T10:24:39;35;29;14
73305;PMS5003;61530;51.158;0.880;2022-12-11T10:25:43;34;29;17
73305;PMS5003;61530;51.158;0.880;2022-12-11T10:26:47;30;27;15
73305;PMS5003;61530;51.158;0.880;2022-12-11T10:27:50;31;25;14
73305;PMS5003;61530;51.158;0.880;2022-12-11T10:28:55;32;27;14
73305;PMS5003;61530;51.158;0.880;2022-12-11T10:30:00;35;27;14
73305;PMS5003;61530;51.158;0.880;2022-12-11T10:31:05;23;19;10
73305;PMS5003;61530;51.158;0.880;2022-12-11T10:32:06;22;19;13
73305;PMS5003;61530;51.158;0.880;2022-12-11T10:33:13;31;21;11
73305;PMS5003;61530;51.158;0.880;2022-12-11T10:34:15;27;23;13
73305;PMS5003;61530;51.158;0.880;2022-12-11T10:35:23;40;27;14
73305;PMS5003;61530;51.158;0.880;2022-12-11T10:36:25;27;27;17
73305;PMS5003;61530;51.158;0.880;2022-12-11T10:37:26;27;24;14
73305;PMS5003;61530;51.158;0.880;2022-12-11T10:38:31;27;24;14
73305;PMS5003;61530;51.158;0.880;2022-12-11T10:39:35;24;24;14
73305;PMS5003;61530;51.158;0.880;2022-12-11T10:40:39;28;23;14
73305;PMS5003;61530;51.158;0.880;2022-12-11T10:41:43;40;34;14
73305;PMS5003;61530;51.158;0.880;2022-12-11T10:42:53;33;31;18
73305;PMS5003;61530;51.158;0.880;2022-12-11T10:43:51;28;26;16
73305;PMS5003;61530;51.158;0.880;2022-12-11T10:44:55;32;31;16
73305;PMS5003;61530;51.158;0.880;2022-12-11T10:45:58;27;24;13
73305;PMS5003;61530;51.158;0.880;2022-12-11T10:47:03;38;36;21
73305;PMS5003;61530;51.158;0.880;2022-12-11T10:48:09;33;31;18
73305;PMS5003;61530;51.158;0.880;2022-12-11T10:49:19;27;24;14
73305;PMS5003;61530;51.158;0.880;2022-12-11T10:50:23;35;31;18
73305;PMS5003;61530;51.158;0.880;2022-12-11T10:51:18;37;27;15
73305;PMS5003;61530;51.158;0.880;2022-12-11T10:52:23;28;23;14
73305;PMS5003;61530;51.158;0.880;2022-12-11T10:53:26;27;25;15
73305;PMS5003;61530;51.158;0.880;2022-12-11T10:54:32;37;24;15
73305;PMS5003;61530;51.158;0.880;2022-12-11T10:55:37;29;25;15
73305;PMS5003;61530;51.158;0.880;2022-12-11T10:56:39;37;37;15
73305;PMS5003;61530;51.158;0.880;2022-12-11T10:57:42;37;29;15
73305;PMS5003;61530;51.158;0.880;2022-12-11T10:58:48;31;24;15
73305;PMS5003;61530;51.158;0.880;2022-12-11T10:59:50;28;23;15
73305;PMS5003;61530;51.158;0.880;2022-12-11T11:01:01;30;24;15
73305;PMS5003;61530;51.158;0.880;2022-12-11T11:01:58;34;29;14
73305;PMS5003;61530;51.158;0.880;2022-12-11T11:03:03;34;28;15
73305;PMS5003;61530;51.158;0.880;2022-12-11T11:04:14;25;25;14
73305;PMS5003;61530;51.158;0.880;2022-12-11T11:05:12;29;25;15
73305;PMS5003;61530;51.158;0.880;2022-12-11T11:06:15;27;25;15
73305;PMS5003;61530;51.158;0.880;2022-12-11T11:07:19;27;24;14
73305;PMS5003;61530;51.158;0.880;2022-12-11T11:08:22;30;28;16
73305;PMS5003;61530;51.158;0.880;2022-12-11T11:09:28;36;32;16
73305;PMS5003;61530;51.158;0.880;2022-12-11T11:10:30;38;33;20
73305;PMS5003;61530;51.158;0.880;2022-12-11T11:11:35;43;43;21
73305;PMS5003;61530;51.158;0.880;2022-12-11T11:12:39;54;46;25
73305;PMS5003;61530;51.158;0.880;2022-12-11T11:13:43;45;39;20
73305;PMS5003;61530;51.158;0.880;2022-12-11T11:14:46;41;34;20
73305;PMS5003;61530;51.158;0.880;2022-12-11T11:15:57;46;39;20
73305;PMS5003;61530;51.158;0.880;2022-12-11T11:16:55;62;52;26
73305;PMS5003;61530;51.158;0.880;2022-12-11T11:18:00;39;35;23
73305;PMS5003;61530;51.158;0.880;2022-12-11T11:19:02;35;32;19
73305;PMS5003;61530;51.158;0.880;2022-12-11T11:20:12;53;46;24
73305;PMS5003;61530;51.158;0.880;2022-12-11T11:21:14;63;55;33
73305;PMS5003;61530;51.158;0.880;2022-12-11T11:22:15;47;42;25
73305;PMS5003;61530;51.158;0.880;2022-12-11T11:23:18;32;30;17
73305;PMS5003;61530;51.158;0.880;2022-12-11T11:24:26;35;29;17
73305;PMS5003;61530;51.158;0.880;2022-12-11T11:25:26;35;34;19
73305;PMS5003;61530;51.158;0.880;2022-12-11T11:26:31;40;35;23
73305;PMS5003;61530;51.158;0.880;2022-12-11T11:27:35;40;33;19
73305;PMS5003;61530;51.158;0.880;2022-12-11T11:28:39;30;30;17
73305;PMS5003;61530;51.158;0.880;2022-12-11T11:29:42;46;44;23
73305;PMS5003;61530;51.158;0.880;2022-12-11T11:30:54;41;39;24
73305;PMS5003;61530;51.158;0.880;2022-12-11T11:31:50;47;42;26
73305;PMS5003;61530;51.158;0.880;2022-12-11T11:32:55;46;39;21
73305;PMS5003;61530;51.158;0.880;2022-12-11T11:33:58;40;35;21
73305;PMS5003;61530;51.158;0.880;2022-12-11T11:35:14;45;40;28
73305;PMS5003;61530;51.158;0.880;2022-12-11T11:36:06;51;47;27
73305;PMS5003;61530;51.158;0.880;2022-12-11T11:37:19;48;40;24
73305;PMS5003;61530;51.158;0.880;2022-12-11T11:38:15;45;39;17
73305;PMS5003;61530;51.158;0.880;2022-12-11T11:39:20;41;36;21
73305;PMS5003;61530;51.158;0.880;2022-12-11T11:40:24;36;29;18
73305;PMS5003;61530;51.158;0.880;2022-12-11T11:41:28;37;29;17
73305;PMS5003;61530;51.158;0.880;2022-12-11T11:42:33;40;33;20
73305;PMS5003;61530;51.158;0.880;2022-12-11T11:43:36;33;31;21
73305;PMS5003;61530;51.158;0.880;2022-12-11T11:44:39;54;48;30
73305;PMS5003;61530;51.158;0.880;2022-12-11T11:45:43;47;42;21
73305;PMS5003;61530;51.158;0.880;2022-12-11T11:46:46;46;42;21
73305;PMS5003;61530;51.158;0.880;2022-12-11T11:47:54;53;49;30
73305;PMS5003;61530;51.158;0.880;2022-12-11T11:48:57;44;38;20
73305;PMS5003;61530;51.158;0.880;2022-12-11T11:49:59;40;37;22
73305;PMS5003;61530;51.158;0.880;2022-12-11T11:51:05;52;47;24
73305;PMS5003;61530;51.158;0.880;2022-12-11T11:52:08;55;47;25
73305;PMS5003;61530;51.158;0.880;2022-12-11T11:53:11;47;44;20
73305;PMS5003;61530;51.158;0.880;2022-12-11T11:54:19;44;42;23
73305;PMS5003;61530;51.158;0.880;2022-12-11T11:55:19;35;33;21
73305;PMS5003;61530;51.158;0.880;2022-12-11T11:56:24;40;34;20
73305;PMS5003;61530;51.158;0.880;2022-12-11T11:57:28;33;30;20
73305;PMS5003;61530;51.158;0.880;2022-12-11T11:58:32;39;38;25
73305;PMS5003;61530;51.158;0.880;2022-12-11T11:59:35;41;35;24
73305;PMS5003;61530;51.158;0.880;2022-12-11T12:00:39;37;37;24
73305;PMS5003;61530;51.158;0.880;2022-12-11T12:01:42;44;41;25
73305;PMS5003;61530;51.158;0.880;2022-12-11T12:02:47;52;44;28
73305;PMS5003;61530;51.158;0.880;2022-12-11T12:03:50;46;42;26
73305;PMS5003;61530;51.158;0.880;2022-12-11T12:04:55;40;38;23
73305;PMS5003;61530;51.158;0.880;2022-12-11T12:06:01;39;35;20
73305;PMS5003;61530;51.158;0.880;2022-12-11T12:07:06;34;30;20
73305;PMS5003;61530;51.158;0.880;2022-12-11T12:08:07;38;34;21
73305;PMS5003;61530;51.158;0.880;2022-12-11T12:09:14;50;47;28
73305;PMS5003;61530;51.158;0.880;2022-12-11T12:10:15;51;44;26
73305;PMS5003;61530;51.158;0.880;2022-12-11T12:11:21;56;51;30
73305;PMS5003;61530;51.158;0.880;2022-12-11T12:12:25;51;44;28
73305;PMS5003;61530;51.158;0.880;2022-12-11T12:13:28;54;45;30
73305;PMS5003;61530;51.158;0.880;2022-12-11T12:14:31;57;57;33
73305;PMS5003;61530;51.158;0.880;2022-12-11T12:15:37;52;48;33
73305;PMS5003;61530;51.158;0.880;2022-12-11T12:16:40;49;48;24
73305;PMS5003;61530;51.158;0.880;2022-12-11T12:17:46;56;44;29
73305;PMS5003;61530;51.158;0.880;2022-12-11T12:18:48;67;57;34
73305;PMS5003;61530;51.158;0.880;2022-12-11T12:19:53;51;45;30
73305;PMS5003;61530;51.158;0.880;2022-12-11T12:20:56;57;54;31
73305;PMS5003;61530;51.158;0.880;2022-12-11T12:21:59;66;58;30
73305;PMS5003;61530;51.158;0.880;2022-12-11T12:23:06;61;56;33
73305;PMS5003;61530;51.158;0.880;2022-12-11T12:24:10;61;56;30
73305;PMS5003;61530;51.158;0.880;2022-12-11T12:25:15;59;57;34
73305;PMS5003;61530;51.158;0.880;2022-12-11T12:26:18;57;53;29
73305;PMS5003;61530;51.158;0.880;2022-12-11T12:27:20;47;44;28
73305;PMS5003;61530;51.158;0.880;2022-12-11T12:28:24;40;35;21
73305;PMS5003;61530;51.158;0.880;2022-12-11T12:29:28;45;42;24
73305;PMS5003;61530;51.158;0.880;2022-12-11T12:30:34;53;45;24
73305;PMS5003;61530;51.158;0.880;2022-12-11T12:31:38;44;42;24
73305;PMS5003;61530;51.158;0.880;2022-12-11T12:32:40;35;30;17
73305;PMS5003;61530;51.158;0.880;2022-12-11T12:33:45;43;35;21
73305;PMS5003;61530;51.158;0.880;2022-12-11T12:34:50;42;39;30
73305;PMS5003;61530;51.158;0.880;2022-12-11T12:35:52;42;36;24
73305;PMS5003;61530;51.158;0.880;2022-12-11T12:36:55;33;33;19
73305;PMS5003;61530;51.158;0.880;2022-12-11T12:38:00;41;39;24
73305;PMS5003;61530;51.158;0.880;2022-12-11T12:39:04;44;43;24
73305;PMS5003;61530;51.158;0.880;2022-12-11T12:40:09;40;36;24
73305;PMS5003;61530;51.158;0.880;2022-12-11T12:41:12;41;34;21
73305;PMS5003;61530;51.158;0.880;2022-12-11T12:42:15;35;31;21
73305;PMS5003;61530;51.158;0.880;2022-12-11T12:43:25;40;40;24
73305;PMS5003;61530;51.158;0.880;2022-12-11T12:44:23;42;37;20
73305;PMS5003;61530;51.158;0.880;2022-12-11T12:45:27;35;31;21
73305;PMS5003;61530;51.158;0.880;2022-12-11T12:46:33;30;29;16
73305;PMS5003;61530;51.158;0.880;2022-12-11T12:47:35;33;29;17
73305;PMS5003;61530;51.158;0.880;2022-12-11T12:48:38;26;25;15
73305;PMS5003;61530;51.158;0.880;2022-12-11T12:49:43;34;27;16
73305;PMS5003;61530;51.158;0.880;2022-12-11T12:50:47;31;26;12
73305;PMS5003;61530;51.158;0.880;2022-12-11T12:51:51;26;21;11
73305;PMS5003;61530;51.158;0.880;2022-12-11T12:52:54;27;24;11
73305;PMS5003;61530;51.158;0.880;2022-12-11T12:53:59;25;22;11
73305;PMS5003;61530;51.158;0.880;2022-12-11T12:55:03;32;24;13
73305;PMS5003;61530;51.158;0.880;2022-12-11T12:56:07;21;17;11
73305;PMS5003;61530;51.158;0.880;2022-12-11T12:57:10;17;17;13
73305;PMS5003;61530;51.158;0.880;2022-12-11T12:58:23;25;20;10
73305;PMS5003;61530;51.158;0.880;2022-12-11T12:59:19;16;13;10
73305;PMS5003;61530;51.158;0.880;2022-12-11T13:00:26;20;16;11
73305;PMS5003;61530;51.158;0.880;2022-12-11T13:01:26;20;15;10
73305;PMS5003;61530;51.158;0.880;2022-12-11T13:02:30;19;15;10
73305;PMS5003;61530;51.158;0.880;2022-12-11T13:03:35;19;17;12
73305;PMS5003;61530;51.158;0.880;2022-12-11T13:04:39;20;16;10
73305;PMS5003;61530;51.158;0.880;2022-12-11T13:05:43;29;22;15
73305;PMS5003;61530;51.158;0.880;2022-12-11T13:06:46;30;26;17
73305;PMS5003;61530;51.158;0.880;2022-12-11T13:07:51;21;19;12
73305;PMS5003;61530;51.158;0.880;2022-12-11T13:08:54;40;30;18
73305;PMS5003;61530;51.158;0.880;2022-12-11T13:10:00;37;36;21
73305;PMS5003;61530;51.158;0.880;2022-12-11T13:11:04;48;40;23
73305;PMS5003;61530;51.158;0.880;2022-12-11T13:12:11;46;42;23
73305;PMS5003;61530;51.158;0.880;2022-12-11T13:13:44;65;56;34
73305;PMS5003;61530;51.158;0.880;2022-12-11T13:14:23;49;44;25
73305;PMS5003;61530;51.158;0.880;2022-12-11T13:15:28;54;51;29
73305;PMS5003;61530;51.158;0.880;2022-12-11T13:16:24;61;53;30
73305;PMS5003;61530;51.158;0.880;2022-12-11T13:17:34;59;48;31
73305;PMS5003;61530;51.158;0.880;2022-12-11T13:18:31;58;51;30
73305;PMS5003;61530;51.158;0.880;2022-12-11T13:19:34;63;55;27
73305;PMS5003;61530;51.158;0.880;2022-12-11T13:20:44;64;53;31
73305;PMS5003;61530;51.158;0.880;2022-12-11T13:21:43;53;45;29
73305;PMS5003;61530;51.158;0.880;2022-12-11T13:22:47;65;52;31
73305;PMS5003;61530;51.158;0.880;2022-12-11T13:23:50;61;52;31
73305;PMS5003;61530;51.158;0.880;2022-12-11T13:24:57;55;51;31
73305;PMS5003;61530;51.158;0.880;2022-12-11T13:25:59;49;41;26
73305;PMS5003;61530;51.158;0.880;2022-12-11T13:27:07;41;34;22
73305;PMS5003;61530;51.158;0.880;2022-12-11T13:28:17;42;40;21
73305;PMS5003;61530;51.158;0.880;2022-12-11T13:29:42;30;29;17
73305;PMS5003;61530;51.158;0.880;2022-12-11T13:30:20;34;34;18
73305;PMS5003;61530;51.158;0.880;2022-12-11T13:31:28;31;31;20
73305;PMS5003;61530;51.158;0.880;2022-12-11T13:32:23;49;44;27
73305;PMS5003;61530;51.158;0.880;2022-12-11T13:33:26;51;45;26
73305;PMS5003;61530;51.158;0.880;2022-12-11T13:34:31;43;38;24
73305;PMS5003;61530;51.158;0.880;2022-12-11T13:35:34;45;39;21
73305;PMS5003;61530;51.158;0.880;2022-12-11T13:36:38;36;32;20
73305;PMS5003;61530;51.158;0.880;2022-12-11T13:37:42;36;34;22
73305;PMS5003;61530;51.158;0.880;2022-12-11T13:38:48;44;40;22
73305;PMS5003;61530;51.158;0.880;2022-12-11T13:39:50;44;39;25
73305;PMS5003;61530;51.158;0.880;2022-12-11T13:40:54;56;50;27
73305;PMS5003;61530;51.158;0.880;2022-12-11T13:41:59;47;44;27
73305;PMS5003;61530;51.158;0.880;2022-12-11T13:43:03;50;45;29
73305;PMS5003;61530;51.158;0.880;2022-12-11T13:44:06;54;47;29
73305;PMS5003;61530;51.158;0.880;2022-12-11T13:45:16;70;61;36
73305;PMS5003;61530;51.158;0.880;2022-12-11T13:46:14;74;61;37
73305;PMS5003;61530;51.158;0.880;2022-12-11T13:47:18;70;64;39
73305;PMS5003;61530;51.158;0.880;2022-12-11T13:48:22;70;66;40
73305;PMS5003;61530;51.158;0.880;2022-12-11T13:49:27;70;63;36
73305;PMS5003;61530;51.158;0.880;2022-12-11T13:50:31;56;52;31
73305;PMS5003;61530;51.158;0.880;2022-12-11T13:51:34;50;49;28
73305;PMS5003;61530;51.158;0.880;2022-12-11T13:52:38;53;46;29
73305;PMS5003;61530;51.158;0.880;2022-12-11T13:53:42;48;45;27
73305;PMS5003;61530;51.158;0.880;2022-12-11T13:54:46;52;48;26
73305;PMS5003;61530;51.158;0.880;2022-12-11T13:55:59;58;50;28
73305;PMS5003;61530;51.158;0.880;2022-12-11T13:56:55;66;61;38
73305;PMS5003;61530;51.158;0.880;2022-12-11T13:57:58;68;66;41
73305;PMS5003;61530;51.158;0.880;2022-12-11T13:59:02;64;60;39
73305;PMS5003;61530;51.158;0.880;2022-12-11T14:00:18;46;41;23
73305;PMS5003;61530;51.158;0.880;2022-12-11T14:01:11;36;35;25
73305;PMS5003;61530;51.158;0.880;2022-12-11T14:02:17;40;39;22
73305;PMS5003;61530;51.158;0.880;2022-12-11T14:03:18;42;41;22
73305;PMS5003;61530;51.158;0.880;2022-12-11T14:04:22;43;43;27
73305;PMS5003;61530;51.158;0.880;2022-12-11T14:05:26;52;48;30
73305;PMS5003;61530;51.158;0.880;2022-12-11T14:06:30;37;36;25
73305;PMS5003;61530;51.158;0.880;2022-12-11T14:07:35;37;36;25
73305;PMS5003;61530;51.158;0.880;2022-12-11T14:08:39;42;40;26
73305;PMS5003;61530;51.158;0.880;2022-12-11T14:09:42;38;33;25
73305;PMS5003;61530;51.158;0.880;2022-12-11T14:10:49;37;36;23
73305;PMS5003;61530;51.158;0.880;2022-12-11T14:11:50;38;38;23
73305;PMS5003;61530;51.158;0.880;2022-12-11T14:12:55;40;36;23
73305;PMS5003;61530;51.158;0.880;2022-12-11T14:13:58;36;36;23
73305;PMS5003;61530;51.158;0.880;2022-12-11T14:15:03;43;40;26
73305;PMS5003;61530;51.158;0.880;2022-12-11T14:16:06;37;37;27
73305;PMS5003;61530;51.158;0.880;2022-12-11T14:17:11;35;33;21
73305;PMS5003;61530;51.158;0.880;2022-12-11T14:18:14;36;32;21
73305;PMS5003;61530;51.158;0.880;2022-12-11T14:19:19;32;28;18
73305;PMS5003;61530;51.158;0.880;2022-12-11T14:20:23;11;10;6
73305;PMS5003;61530;51.158;0.880;2022-12-11T14:21:27;13;11;7
73305;PMS5003;61530;51.158;0.880;2022-12-11T14:22:30;17;12;7
73305;PMS5003;61530;51.158;0.880;2022-12-11T14:23:35;8;8;5
73305;PMS5003;61530;51.158;0.880;2022-12-11T14:24:46;17;16;8
73305;PMS5003;61530;51.158;0.880;2022-12-11T14:25:50;15;11;5
73305;PMS5003;61530;51.158;0.880;2022-12-11T14:26:49;12;12;6
73305;PMS5003;61530;51.158;0.880;2022-12-11T14:27:51;17;16;10
73305;PMS5003;61530;51.158;0.880;2022-12-11T14:28:54;11;8;5
73305;PMS5003;61530;51.158;0.880;2022-12-11T14:30:07;8;8;6
73305;PMS5003;61530;51.158;0.880;2022-12-11T14:31:02;6;6;5
73305;PMS5003;61530;51.158;0.880;2022-12-11T14:32:06;11;11;8
73305;PMS5003;61530;51.158;0.880;2022-12-11T14:33:10;17;17;11
73305;PMS5003;61530;51.158;0.880;2022-12-11T14:34:16;8;8;5
73305;PMS5003;61530;51.158;0.880;2022-12-11T14:35:22;8;7;4
73305;PMS5003;61530;51.158;0.880;2022-12-11T14:36:22;8;7;4
73305;PMS5003;61530;51.158;0.880;2022-12-11T14:37:26;12;8;6
73305;PMS5003;61530;51.158;0.880;2022-12-11T14:38:32;6;6;3
73305;PMS5003;61530;51.158;0.880;2022-12-11T14:39:35;6;6;4
73305;PMS5003;61530;51.158;0.880;2022-12-11T14:40:39;6;3;1
73305;PMS5003;61530;51.158;0.880;2022-12-11T14:41:44;7;7;3
73305;PMS5003;61530;51.158;0.880;2022-12-11T14:42:47;7;6;3
73305;PMS5003;61530;51.158;0.880;2022-12-11T14:43:50;5;5;3
73305;PMS5003;61530;51.158;0.880;2022-12-11T14:44:55;4;2;1
73305;PMS5003;61530;51.158;0.880;2022-12-11T14:45:59;3;2;2
73305;PMS5003;61530;51.158;0.880;2022-12-11T14:47:03;3;3;2
73305;PMS5003;61530;51.158;0.880;2022-12-11T14:48:06;6;5;3
73305;PMS5003;61530;51.158;0.880;2022-12-11T14:49:13;6;6;3
73305;PMS5003;61530;51.158;0.880;2022-12-11T14:50:16;6;4;2
73305;PMS5003;61530;51.158;0.880;2022-12-11T14:51:18;5;3;2
73305;PMS5003;61530;51.158;0.880;2022-12-11T14:52:22;5;5;3
73305;PMS5003;61530;51.158;0.880;2022-12-11T14:53:27;6;6;2
73305;PMS5003;61530;51.158;0.880;2022-12-11T14:54:30;3;3;2
73305;PMS5003;61530;51.158;0.880;2022-12-11T14:55:34;5;3;2
73305;PMS5003;61530;51.158;0.880;2022-12-11T14:56:38;3;3;2
73305;PMS5003;61530;51.158;0.880;2022-12-11T14:57:43;2;2;2
73305;PMS5003;61530;51.158;0.880;2022-12-11T14:58:50;10;5;2
73305;PMS5003;61530;51.158;0.880;2022-12-11T14:59:51;3;3;2
73305;PMS5003;61530;51.158;0.880;2022-12-11T15:00:56;5;5;3
73305;PMS5003;61530;51.158;0.880;2022-12-11T15:01:59;6;5;2
73305;PMS5003;61530;51.158;0.880;2022-12-11T15:03:03;3;3;2
73305;PMS5003;61530;51.158;0.880;2022-12-11T15:04:15;6;5;3
73305;PMS5003;61530;51.158;0.880;2022-12-11T15:05:13;3;3;1
73305;PMS5003;61530;51.158;0.880;2022-12-11T15:06:22;3;3;1
73305;PMS5003;61530;51.158;0.880;2022-12-11T15:07:18;2;2;2
73305;PMS5003;61530;51.158;0.880;2022-12-11T15:08:25;3;3;2
73305;PMS5003;61530;51.158;0.880;2022-12-11T15:09:27;3;3;2
73305;PMS5003;61530;51.158;0.880;2022-12-11T15:10:32;7;5;2
73305;PMS5003;61530;51.158;0.880;2022-12-11T15:11:34;3;3;2
73305;PMS5003;61530;51.158;0.880;2022-12-11T15:12:42;3;2;1
73305;PMS5003;61530;51.158;0.880;2022-12-11T15:13:46;1;1;1
73305;PMS5003;61530;51.158;0.880;2022-12-11T15:14:47;2;2;1
73305;PMS5003;61530;51.158;0.880;2022-12-11T15:15:50;7;3;2
73305;PMS5003;61530;51.158;0.880;2022-12-11T15:16:55;3;3;2
73305;PMS5003;61530;51.158;0.880;2022-12-11T15:17:58;3;2;1
73305;PMS5003;61530;51.158;0.880;2022-12-11T15:19:02;2;2;1
73305;PMS5003;61530;51.158;0.880;2022-12-11T15:20:07;3;3;2
73305;PMS5003;61530;51.158;0.880;2022-12-11T15:21:10;5;5;2
73305;PMS5003;61530;51.158;0.880;2022-12-11T15:22:14;6;5;2
73305;PMS5003;61530;51.158;0.880;2022-12-11T15:23:18;3;3;2
73305;PMS5003;61530;51.158;0.880;2022-12-11T15:24:23;5;5;2
73305;PMS5003;61530;51.158;0.880;2022-12-11T15:25:27;7;5;2
73305;PMS5003;61530;51.158;0.880;2022-12-11T15:26:32;6;6;2
73305;PMS5003;61530;51.158;0.880;2022-12-11T15:27:35;8;6;3
73305;PMS5003;61530;51.158;0.880;2022-12-11T15:28:42;10;10;3
73305;PMS5003;61530;51.158;0.880;2022-12-11T15:29:42;6;6;3
73305;PMS5003;61530;51.158;0.880;2022-12-11T15:30:53;6;6;3
73305;PMS5003;61530;51.158;0.880;2022-12-11T15:31:57;13;8;5
73305;PMS5003;61530;51.158;0.880;2022-12-11T15:33:02;6;6;2
73305;PMS5003;61530;51.158;0.880;2022-12-11T15:33:59;11;10;6
73305;PMS5003;61530;51.158;0.880;2022-12-11T15:35:20;12;8;5
73305;PMS5003;61530;51.158;0.880;2022-12-11T15:36:18;8;8;5
73305;PMS5003;61530;51.158;0.880;2022-12-11T15:37:16;11;8;3
73305;PMS5003;61530;51.158;0.880;2022-12-11T15:38:23;17;12;7
73305;PMS5003;61530;51.158;0.880;2022-12-11T15:39:18;12;11;6
73305;PMS5003;61530;51.158;0.880;2022-12-11T15:40:22;13;13;6
73305;PMS5003;61530;51.158;0.880;2022-12-11T15:41:26;11;8;5
73305;PMS5003;61530;51.158;0.880;2022-12-11T15:42:31;16;13;7
73305;PMS5003;61530;51.158;0.880;2022-12-11T15:43:35;12;12;8
73305;PMS5003;61530;51.158;0.880;2022-12-11T15:44:38;15;13;7
73305;PMS5003;61530;51.158;0.880;2022-12-11T15:45:42;13;13;8
73305;PMS5003;61530;51.158;0.880;2022-12-11T15:46:46;17;12;8
73305;PMS5003;61530;51.158;0.880;2022-12-11T15:47:50;16;16;10
73305;PMS5003;61530;51.158;0.880;2022-12-11T15:48:55;15;11;8
73305;PMS5003;61530;51.158;0.880;2022-12-11T15:49:59;22;22;12
73305;PMS5003;61530;51.158;0.880;2022-12-11T15:51:03;15;13;8
73305;PMS5003;61530;51.158;0.880;2022-12-11T15:52:06;12;12;10
73305;PMS5003;61530;51.158;0.880;2022-12-11T15:53:10;17;15;8
73305;PMS5003;61530;51.158;0.880;2022-12-11T15:54:14;21;17;8
73305;PMS5003;61530;51.158;0.880;2022-12-11T15:55:19;12;12;8
73305;PMS5003;61530;51.158;0.880;2022-12-11T15:56:22;17;16;10
73305;PMS5003;61530;51.158;0.880;2022-12-11T15:57:26;13;12;8
73305;PMS5003;61530;51.158;0.880;2022-12-11T15:58:30;15;13;8
73305;PMS5003;61530;51.158;0.880;2022-12-11T15:59:34;13;13;10
73305;PMS5003;61530;51.158;0.880;2022-12-11T16:00:38;13;13;8
73305;PMS5003;61530;51.158;0.880;2022-12-11T16:01:42;16;13;8
73305;PMS5003;61530;51.158;0.880;2022-12-11T16:02:46;15;15;8
73305;PMS5003;61530;51.158;0.880;2022-12-11T16:03:50;16;12;8
73305;PMS5003;61530;51.158;0.880;2022-12-11T16:04:54;25;23;11
73305;PMS5003;61530;51.158;0.880;2022-12-11T16:05:58;15;13;8
73305;PMS5003;61530;51.158;0.880;2022-12-11T16:07:02;15;12;7
73305;PMS5003;61530;51.158;0.880;2022-12-11T16:08:06;10;10;7
73305;PMS5003;61530;51.158;0.880;2022-12-11T16:09:10;17;17;10
73305;PMS5003;61530;51.158;0.880;2022-12-11T16:10:15;17;13;8
73305;PMS5003;61530;51.158;0.880;2022-12-11T16:11:18;16;12;8
73305;PMS5003;61530;51.158;0.880;2022-12-11T16:12:22;13;13;7
73305;PMS5003;61530;51.158;0.880;2022-12-11T16:13:26;14;12;7
73305;PMS5003;61530;51.158;0.880;2022-12-11T16:14:30;12;12;7
73305;PMS5003;61530;51.158;0.880;2022-12-11T16:15:35;13;13;7
73305;PMS5003;61530;51.158;0.880;2022-12-11T16:16:38;8;7;6
73305;PMS5003;61530;51.158;0.880;2022-12-11T16:17:42;10;10;6
73305;PMS5003;61530;51.158;0.880;2022-12-11T16:18:46;10;10;6
73305;PMS5003;61530;51.158;0.880;2022-12-11T16:19:51;8;8;6
73305;PMS5003;61530;51.158;0.880;2022-12-11T16:20:54;8;7;5
73305;PMS5003;61530;51.158;0.880;2022-12-11T16:21:58;5;5;3
73305;PMS5003;61530;51.158;0.880;2022-12-11T16:23:02;7;5;2
73305;PMS5003;61530;51.158;0.880;2022-12-11T16:24:06;3;3;2
73305;PMS5003;61530;51.158;0.880;2022-12-11T16:25:10;6;6;3
73305;PMS5003;61530;51.158;0.880;2022-12-11T16:26:14;8;6;3
73305;PMS5003;61530;51.158;0.880;2022-12-11T16:27:18;6;5;2